createdAt,value
2019-01-25T00:00:19.088Z,-3.10
2019-01-25T00:02:49.818Z,-3.10
2019-01-25T00:05:20.559Z,-3.10
2019-01-25T00:07:51.154Z,-2.90
2019-01-25T00:10:21.767Z,-3.00
2019-01-25T00:12:52.434Z,-3.00
2019-01-25T00:15:23.090Z,-3.00
2019-01-25T00:17:53.717Z,-3.10
2019-01-25T00:20:24.342Z,-3.10
2019-01-25T00:22:55.746Z,-3.10
2019-01-25T00:25:26.597Z,-3.10
2019-01-25T00:27:57.499Z,-3.10
2019-01-25T00:30:28.176Z,-3.10
2019-01-25T00:32:58.839Z,-3.10
2019-01-25T00:35:29.495Z,-3.10
2019-01-25T00:38:00.093Z,-3.20
2019-01-25T00:40:30.741Z,-3.10
2019-01-25T00:43:01.306Z,-3.10
2019-01-25T00:45:31.974Z,-3.20
2019-01-25T00:48:02.589Z,-3.20
2019-01-25T00:50:33.268Z,-3.20
2019-01-25T00:53:03.891Z,-3.20
2019-01-25T00:55:34.500Z,-3.20
2019-01-25T00:58:05.329Z,-3.10
2019-01-25T01:00:36.036Z,-3.20
2019-01-25T01:03:07.554Z,-3.20
2019-01-25T01:05:40.061Z,-3.20
2019-01-25T01:08:10.770Z,-3.20
2019-01-25T01:10:41.389Z,-3.10
2019-01-25T01:13:12.027Z,-3.00
2019-01-25T01:15:42.652Z,-3.00
2019-01-25T01:18:13.285Z,-3.20
2019-01-25T01:20:43.904Z,-3.10
2019-01-25T01:23:15.305Z,-3.20
2019-01-25T01:25:45.977Z,-3.10
2019-01-25T01:28:16.642Z,-3.10
2019-01-25T01:30:47.227Z,-3.10
2019-01-25T01:33:17.759Z,-3.20
2019-01-25T01:35:48.423Z,-3.20
2019-01-25T01:38:19.053Z,-3.10
2019-01-25T01:40:49.819Z,-3.20
2019-01-25T01:43:20.426Z,-3.20
2019-01-25T01:45:51.088Z,-3.10
2019-01-25T01:48:21.649Z,-3.20
2019-01-25T01:50:52.332Z,-3.20
2019-01-25T01:53:23.001Z,-3.20
2019-01-25T01:55:53.701Z,-3.20
2019-01-25T01:58:24.303Z,-3.20
2019-01-25T02:00:54.917Z,-3.20
2019-01-25T02:03:25.865Z,-3.20
2019-01-25T02:05:56.578Z,-3.20
2019-01-25T02:08:27.252Z,-3.20
2019-01-25T02:10:58.005Z,-3.30
2019-01-25T02:13:28.608Z,-3.10
2019-01-25T02:16:00.182Z,-3.10
2019-01-25T02:18:31.230Z,-3.10
2019-01-25T02:21:03.021Z,-3.10
2019-01-25T02:23:34.431Z,-3.10
2019-01-25T02:26:05.111Z,-3.10
2019-01-25T02:28:35.873Z,-3.10
2019-01-25T02:31:06.429Z,-3.00
2019-01-25T02:33:36.983Z,-3.00
2019-01-25T02:36:07.606Z,-3.00
2019-01-25T02:38:38.243Z,-3.10
2019-01-25T02:41:17.036Z,-3.10
2019-01-25T02:43:47.677Z,-3.10
2019-01-25T02:46:18.379Z,-3.10
2019-01-25T02:48:48.841Z,-3.10
2019-01-25T02:51:19.482Z,-3.10
2019-01-25T02:53:50.110Z,-3.10
2019-01-25T02:56:20.750Z,-3.10
2019-01-25T02:58:51.376Z,-3.10
2019-01-25T03:01:22.025Z,-3.10
2019-01-25T03:03:52.620Z,-3.10
2019-01-25T03:06:25.098Z,-3.10
2019-01-25T03:08:55.715Z,-3.20
2019-01-25T03:11:26.345Z,-3.20
2019-01-25T03:13:56.854Z,-3.20
2019-01-25T03:16:27.493Z,-3.10
2019-01-25T03:18:59.824Z,-3.20
2019-01-25T03:21:30.448Z,-3.20
2019-01-25T03:24:01.894Z,-3.20
2019-01-25T03:26:32.612Z,-3.00
2019-01-25T03:29:03.323Z,-3.20
2019-01-25T03:31:34.042Z,-3.20
2019-01-25T03:34:04.842Z,-3.20
2019-01-25T03:36:35.533Z,-3.20
2019-01-25T03:39:08.834Z,-3.20
2019-01-25T03:41:39.521Z,-3.30
2019-01-25T03:44:10.260Z,-3.30
2019-01-25T03:46:41.435Z,-3.30
2019-01-25T03:49:12.390Z,-3.40
2019-01-25T03:51:43.098Z,-3.50
2019-01-25T03:54:13.815Z,-3.40
2019-01-25T03:56:44.479Z,-3.40
2019-01-25T03:59:15.165Z,-3.50
2019-01-25T04:01:47.471Z,-3.50
2019-01-25T04:04:18.056Z,-3.50
2019-01-25T04:06:48.707Z,-3.50
2019-01-25T04:09:19.271Z,-3.50
2019-01-25T04:11:53.344Z,-3.40
2019-01-25T04:14:23.049Z,-3.50
2019-01-25T04:16:53.724Z,-3.40
2019-01-25T04:19:24.396Z,-3.40
2019-01-25T04:21:55.136Z,-3.40
2019-01-25T04:24:26.536Z,-3.40
2019-01-25T04:26:57.271Z,-3.40
2019-01-25T04:29:28.178Z,-3.50
2019-01-25T04:31:58.811Z,-3.40
2019-01-25T04:34:29.412Z,-3.50
2019-01-25T04:37:00.208Z,-3.50
2019-01-25T04:39:30.902Z,-3.40
2019-01-25T04:42:01.552Z,-3.40
2019-01-25T04:44:33.832Z,-3.40
2019-01-25T04:47:04.450Z,-3.50
2019-01-25T04:49:36.919Z,-3.40
2019-01-25T04:52:15.126Z,-3.70
2019-01-25T04:54:45.732Z,-3.60
2019-01-25T04:57:16.371Z,-3.50
2019-01-25T04:59:47.011Z,-3.60
2019-01-25T05:02:17.663Z,-3.50
2019-01-25T05:04:50.867Z,-3.60
2019-01-25T05:07:21.526Z,-3.60
2019-01-25T05:09:52.005Z,-3.70
2019-01-25T05:12:22.564Z,-3.70
2019-01-25T05:14:53.251Z,-3.60
2019-01-25T05:17:23.949Z,-3.70
2019-01-25T05:19:54.618Z,-3.70
2019-01-25T05:22:25.419Z,-3.50
2019-01-25T05:24:56.827Z,-3.70
2019-01-25T05:27:30.456Z,-3.60
2019-01-25T05:30:01.134Z,-3.70
2019-01-25T05:32:31.859Z,-3.60
2019-01-25T05:35:03.972Z,-3.60
2019-01-25T05:37:37.930Z,-3.70
2019-01-25T05:40:12.228Z,-3.60
2019-01-25T05:42:42.867Z,-3.60
2019-01-25T05:45:16.713Z,-3.70
2019-01-25T05:47:47.314Z,-3.70
2019-01-25T05:50:18.725Z,-3.70
2019-01-25T05:52:49.262Z,-3.60
2019-01-25T05:55:23.725Z,-3.70
2019-01-25T05:58:03.573Z,-3.60
2019-01-25T06:00:38.274Z,-3.60
2019-01-25T06:03:12.558Z,-3.60
2019-01-25T06:05:44.053Z,-3.60
2019-01-25T06:08:31.924Z,-3.60
2019-01-25T06:11:07.833Z,-3.60
2019-01-25T06:13:38.988Z,-3.60
2019-01-25T06:16:10.053Z,-3.60
2019-01-25T06:18:41.061Z,-3.60
2019-01-25T06:21:11.754Z,-3.50
2019-01-25T06:23:42.471Z,-3.60
2019-01-25T06:26:14.358Z,-3.60
2019-01-25T06:28:49.443Z,-3.50
2019-01-25T06:31:27.819Z,-3.50
2019-01-25T06:33:58.417Z,-3.50
2019-01-25T06:36:29.037Z,-3.50
2019-01-25T06:39:01.763Z,-3.50
2019-01-25T06:41:32.430Z,-3.50
2019-01-25T06:44:02.970Z,-3.40
2019-01-25T06:46:33.795Z,-3.40
2019-01-25T06:49:04.945Z,-3.40
2019-01-25T06:51:38.627Z,-3.40
2019-01-25T06:54:09.268Z,-3.40
2019-01-25T06:56:39.855Z,-3.40
2019-01-25T06:59:12.210Z,-3.50
2019-01-25T07:01:44.499Z,-3.50
2019-01-25T07:04:15.110Z,-3.40
2019-01-25T07:06:47.245Z,-3.40
2019-01-25T07:09:18.050Z,-3.40
2019-01-25T07:11:51.703Z,-3.30
2019-01-25T07:14:20.998Z,-3.30
2019-01-25T07:16:51.654Z,-3.40
2019-01-25T07:19:32.841Z,-3.30
2019-01-25T07:22:07.822Z,-3.30
2019-01-25T07:24:38.535Z,-3.20
2019-01-25T07:27:10.254Z,-3.30
2019-01-25T07:29:40.965Z,-3.20
2019-01-25T07:32:11.679Z,-3.20
2019-01-25T07:34:42.362Z,-3.20
2019-01-25T07:37:15.214Z,-3.10
2019-01-25T07:39:46.658Z,-3.00
2019-01-25T07:42:17.610Z,-3.00
2019-01-25T07:44:49.247Z,-3.00
2019-01-25T07:47:19.893Z,-2.90
2019-01-25T07:49:50.603Z,-2.90
2019-01-25T07:52:25.802Z,-2.90
2019-01-25T07:54:56.423Z,-2.90
2019-01-25T07:57:27.516Z,-2.90
2019-01-25T07:59:58.907Z,-2.90
2019-01-25T08:02:29.321Z,-2.90
2019-01-25T08:04:59.954Z,-2.70
2019-01-25T08:07:30.602Z,-2.70
2019-01-25T08:10:01.306Z,-2.60
2019-01-25T08:12:31.941Z,-2.50
2019-01-25T08:15:04.335Z,-2.40
2019-01-25T08:17:34.976Z,-2.30
2019-01-25T08:20:10.067Z,-2.10
2019-01-25T08:22:41.307Z,-2.10
2019-01-25T08:25:16.215Z,-2.10
2019-01-25T08:27:48.367Z,-2.10
2019-01-25T08:30:22.485Z,-2.00
2019-01-25T08:32:53.404Z,-2.20
2019-01-25T08:35:24.151Z,-2.20
2019-01-25T08:37:54.710Z,-2.30
2019-01-25T08:40:25.448Z,-2.30
2019-01-25T08:42:56.949Z,-2.20
2019-01-25T08:45:27.894Z,-2.40
2019-01-25T08:47:58.608Z,-2.10
2019-01-25T08:50:29.333Z,-2.20
2019-01-25T08:52:59.903Z,-2.10
2019-01-25T08:55:30.578Z,-2.20
2019-01-25T08:58:01.337Z,-2.10
2019-01-25T09:00:32.268Z,-2.00
2019-01-25T09:03:02.911Z,-2.10
2019-01-25T09:05:33.608Z,-2.00
2019-01-25T09:08:05.419Z,-1.90
2019-01-25T09:10:39.605Z,-1.90
2019-01-25T09:13:10.219Z,-1.90
2019-01-25T09:15:41.075Z,-1.80
2019-01-25T09:18:11.975Z,-1.80
2019-01-25T09:20:42.596Z,-1.70
2019-01-25T09:23:14.184Z,-1.70
2019-01-25T09:25:44.815Z,-1.60
2019-01-25T09:28:16.062Z,-1.60
2019-01-25T09:30:48.159Z,-1.60
2019-01-25T09:33:20.229Z,-1.60
2019-01-25T09:35:54.202Z,-1.50
2019-01-25T09:38:26.000Z,-1.60
2019-01-25T09:40:57.725Z,-1.50
2019-01-25T09:43:29.478Z,-1.40
2019-01-25T09:46:00.498Z,-1.30
2019-01-25T09:48:31.705Z,-1.40
2019-01-25T09:51:06.113Z,-1.20
2019-01-25T09:53:38.312Z,-1.00
2019-01-25T09:56:10.166Z,-1.00
2019-01-25T09:58:44.696Z,-1.00
2019-01-25T10:01:21.191Z,-0.80
2019-01-25T10:03:52.434Z,-0.80
2019-01-25T10:06:25.262Z,-0.80
2019-01-25T10:08:57.026Z,-0.60
2019-01-25T10:11:29.145Z,-0.60
2019-01-25T10:14:00.678Z,-0.60
2019-01-25T10:16:32.931Z,-0.60
2019-01-25T10:19:03.686Z,-0.20
2019-01-25T10:21:34.723Z,-0.20
2019-01-25T10:24:05.620Z,0.00
2019-01-25T10:26:36.159Z,0.30
2019-01-25T10:29:07.647Z,0.10
2019-01-25T10:31:38.193Z,0.10
2019-01-25T10:34:14.519Z,0.20
2019-01-25T10:36:45.120Z,0.60
2019-01-25T10:39:15.840Z,1.20
2019-01-25T10:41:46.828Z,1.80
2019-01-25T10:44:17.864Z,2.10
2019-01-25T10:46:48.579Z,2.20
2019-01-25T10:49:19.411Z,2.00
2019-01-25T10:51:50.016Z,2.00
2019-01-25T10:54:22.351Z,1.90
2019-01-25T10:56:53.426Z,1.90
2019-01-25T10:59:25.129Z,1.80
2019-01-25T11:01:56.802Z,1.70
2019-01-25T11:04:27.736Z,1.90
2019-01-25T11:06:58.605Z,1.80
2019-01-25T11:09:29.190Z,1.80
2019-01-25T11:11:59.959Z,1.60
2019-01-25T11:14:30.669Z,1.90
2019-01-25T11:17:01.292Z,2.00
2019-01-25T11:19:32.000Z,1.90
2019-01-25T11:22:02.610Z,2.00
2019-01-25T11:24:33.212Z,2.00
2019-01-25T11:27:04.069Z,2.00
2019-01-25T11:29:35.478Z,2.10
2019-01-25T11:32:06.157Z,2.30
2019-01-25T11:34:36.784Z,2.30
2019-01-25T11:37:07.793Z,2.40
2019-01-25T11:39:38.363Z,2.40
2019-01-25T11:42:09.051Z,2.30
2019-01-25T11:44:43.885Z,2.60
2019-01-25T11:47:16.075Z,2.30
2019-01-25T11:49:46.712Z,2.30
2019-01-25T11:52:17.350Z,2.30
2019-01-25T11:54:50.997Z,2.30
2019-01-25T11:57:21.648Z,2.20
2019-01-25T11:59:53.182Z,2.00
2019-01-25T12:02:23.810Z,2.40
2019-01-25T12:04:54.394Z,2.40
2019-01-25T12:07:25.220Z,2.80
2019-01-25T12:09:57.274Z,3.00
2019-01-25T12:12:29.059Z,3.00
2019-01-25T12:14:59.609Z,3.10
2019-01-25T12:17:30.972Z,3.30
2019-01-25T12:20:01.870Z,3.20
2019-01-25T12:22:32.519Z,3.10
2019-01-25T12:28:05.975Z,3.00
2019-01-25T12:30:43.143Z,3.10
2019-01-25T12:33:13.601Z,3.00
2019-01-25T12:35:50.054Z,2.80
2019-01-25T12:38:21.324Z,2.80
2019-01-25T12:40:56.122Z,2.90
2019-01-25T12:43:30.226Z,3.40
2019-01-25T12:46:01.192Z,3.50
2019-01-25T12:48:32.304Z,3.40
2019-01-25T12:51:08.114Z,3.30
2019-01-25T12:53:38.562Z,3.10
2019-01-25T12:56:12.247Z,3.00
2019-01-25T12:58:42.963Z,2.70
2019-01-25T13:01:13.922Z,2.50
2019-01-25T13:03:46.422Z,2.40
2019-01-25T13:06:16.899Z,2.40
2019-01-25T13:08:47.503Z,2.40
2019-01-25T13:11:18.018Z,2.40
2019-01-25T13:13:49.497Z,2.60
2019-01-25T13:16:23.097Z,2.50
2019-01-25T13:18:53.632Z,2.50
2019-01-25T13:21:25.720Z,2.30
2019-01-25T13:23:57.542Z,2.30
2019-01-25T13:26:28.403Z,2.20
2019-01-25T13:28:59.912Z,2.20
2019-01-25T13:31:32.704Z,2.20
2019-01-25T13:34:03.751Z,2.40
2019-01-25T13:36:34.423Z,2.30
2019-01-25T13:39:08.207Z,2.30
2019-01-25T13:41:39.228Z,2.40
2019-01-25T13:44:09.925Z,2.40
2019-01-25T13:46:40.500Z,2.50
2019-01-25T13:49:11.502Z,2.40
2019-01-25T13:51:42.116Z,2.40
2019-01-25T13:54:15.744Z,2.30
2019-01-25T13:56:46.301Z,2.40
2019-01-25T13:59:16.872Z,2.60
2019-01-25T14:01:47.524Z,2.60
2019-01-25T14:04:18.178Z,2.60
2019-01-25T14:06:48.783Z,2.60
2019-01-25T14:09:19.401Z,2.50
2019-01-25T14:11:50.083Z,2.20
2019-01-25T14:14:21.650Z,1.90
2019-01-25T14:16:53.293Z,1.80
2019-01-25T14:19:23.902Z,1.80
2019-01-25T14:21:54.457Z,1.60
2019-01-25T14:24:27.913Z,1.70
2019-01-25T14:26:58.496Z,1.60
2019-01-25T14:29:29.359Z,1.50
2019-01-25T14:32:00.884Z,1.20
2019-01-25T14:34:33.065Z,0.90
2019-01-25T14:37:03.712Z,0.70
2019-01-25T14:39:34.403Z,0.80
2019-01-25T14:42:05.040Z,0.70
2019-01-25T14:44:35.635Z,0.60
2019-01-25T14:47:06.601Z,0.70
2019-01-25T14:49:38.073Z,0.50
2019-01-25T14:52:08.781Z,0.40
2019-01-25T14:54:39.460Z,0.30
2019-01-25T14:57:13.255Z,0.30
2019-01-25T14:59:44.620Z,0.10
2019-01-25T15:02:15.318Z,0.00
2019-01-25T15:04:50.311Z,0.00
2019-01-25T15:07:21.272Z,-0.20
2019-01-25T15:09:51.838Z,-0.20
2019-01-25T15:12:22.848Z,-0.20
2019-01-25T15:14:53.522Z,-0.40
2019-01-25T15:17:24.126Z,-0.30
2019-01-25T15:19:54.952Z,-0.30
2019-01-25T15:22:25.475Z,-0.30
2019-01-25T15:24:56.323Z,-0.30
2019-01-25T15:27:28.528Z,-0.30
2019-01-25T15:30:00.312Z,-0.30
2019-01-25T15:32:32.986Z,-0.30
2019-01-25T15:35:04.257Z,-0.30
2019-01-25T15:37:34.915Z,-0.30
2019-01-25T15:40:12.404Z,-0.20
2019-01-25T15:42:43.301Z,-0.30
2019-01-25T15:45:20.567Z,-0.30
2019-01-25T15:47:51.255Z,-0.30
2019-01-25T15:50:27.835Z,-0.40
2019-01-25T15:52:59.872Z,-0.60
2019-01-25T15:55:30.861Z,-0.50
2019-01-25T15:58:01.420Z,-0.60
2019-01-25T16:00:32.054Z,-0.80
2019-01-25T16:03:02.666Z,-1.00
2019-01-25T16:05:33.359Z,-1.10
2019-01-25T16:08:04.232Z,-1.10
2019-01-25T16:10:35.266Z,-1.20
2019-01-25T16:13:05.937Z,-1.20
2019-01-25T16:15:37.941Z,-1.40
2019-01-25T16:18:09.648Z,-1.60
2019-01-25T16:20:40.405Z,-1.60
2019-01-25T16:23:11.708Z,-1.80
2019-01-25T16:25:42.914Z,-1.60
2019-01-25T16:28:13.467Z,-1.70
2019-01-25T16:30:44.789Z,-1.70
2019-01-25T16:33:16.583Z,-1.70
2019-01-25T16:35:47.862Z,-1.60
2019-01-25T16:38:18.541Z,-1.60
2019-01-25T16:40:49.569Z,-1.60
2019-01-25T16:43:20.197Z,-1.60
2019-01-25T16:45:50.941Z,-1.60
2019-01-25T16:48:21.589Z,-1.60
2019-01-25T16:50:53.293Z,-1.60
2019-01-25T16:53:23.901Z,-1.70
2019-01-25T16:55:55.923Z,-1.60
2019-01-25T16:58:30.001Z,-1.70
2019-01-25T17:01:00.998Z,-1.70
2019-01-25T17:03:31.587Z,-1.70
2019-01-25T17:06:02.624Z,-1.70
2019-01-25T17:08:33.323Z,-1.80
2019-01-25T17:11:04.196Z,-1.80
2019-01-25T17:13:34.847Z,-2.00
2019-01-25T17:16:05.917Z,-2.00
2019-01-25T17:18:36.526Z,-2.00
2019-01-25T17:21:07.324Z,-2.10
2019-01-25T17:23:41.247Z,-2.20
2019-01-25T17:26:14.908Z,-2.30
2019-01-25T17:28:45.641Z,-2.30
2019-01-25T17:31:16.340Z,-2.40
2019-01-25T17:33:49.553Z,-2.40
2019-01-25T17:36:20.199Z,-2.40
2019-01-25T17:38:51.159Z,-2.50
2019-01-25T17:41:23.508Z,-2.50
2019-01-25T17:43:54.150Z,-2.50
2019-01-25T17:46:25.192Z,-2.60
2019-01-25T17:48:56.172Z,-2.60
2019-01-25T17:51:28.086Z,-2.60
2019-01-25T17:53:58.682Z,-2.60
2019-01-25T17:56:29.381Z,-2.60
2019-01-25T17:59:00.088Z,-2.70
2019-01-25T18:01:30.723Z,-2.80
2019-01-25T18:04:01.241Z,-2.70
2019-01-25T18:06:32.046Z,-2.80
2019-01-25T18:09:02.664Z,-2.80
2019-01-25T18:11:33.373Z,-2.80
2019-01-25T18:14:06.108Z,-3.00
2019-01-25T18:16:36.813Z,-2.90
2019-01-25T18:19:08.831Z,-2.90
2019-01-25T18:21:39.396Z,-3.00
2019-01-25T18:24:10.456Z,-3.00
2019-01-25T18:26:41.314Z,-3.00
2019-01-25T18:29:11.779Z,-3.00
2019-01-25T18:31:42.822Z,-3.10
2019-01-25T18:34:14.830Z,-3.00
2019-01-25T18:36:45.549Z,-3.20
2019-01-25T18:39:19.928Z,-3.20
2019-01-25T18:41:50.538Z,-3.20
2019-01-25T18:44:21.231Z,-3.20
2019-01-25T18:46:51.846Z,-3.30
2019-01-25T18:49:22.775Z,-3.30
2019-01-25T18:51:53.696Z,-3.30
2019-01-25T18:54:24.671Z,-3.30
2019-01-25T18:56:55.610Z,-3.40
2019-01-25T18:59:26.233Z,-3.40
2019-01-25T19:01:56.880Z,-3.50
2019-01-25T19:04:27.576Z,-3.50
2019-01-25T19:06:58.911Z,-3.60
2019-01-25T19:09:30.348Z,-3.70
2019-01-25T19:12:00.976Z,-3.80
2019-01-25T19:14:31.486Z,-4.00
2019-01-25T19:17:02.959Z,-4.10
2019-01-25T19:19:33.627Z,-4.10
2019-01-25T19:22:04.269Z,-4.10
2019-01-25T19:24:34.829Z,-4.20
2019-01-25T19:27:05.952Z,-4.20
2019-01-25T19:29:36.650Z,-4.20
2019-01-25T19:32:07.801Z,-4.40
2019-01-25T19:34:39.123Z,-4.50
2019-01-25T19:37:09.768Z,-4.70
2019-01-25T19:39:40.373Z,-4.90
2019-01-25T19:42:11.034Z,-4.90
2019-01-25T19:44:41.629Z,-4.70
2019-01-25T19:47:12.292Z,-4.70
2019-01-25T19:49:42.812Z,-4.60
2019-01-25T19:52:13.481Z,-4.90
2019-01-25T19:54:44.135Z,-4.80
2019-01-25T19:57:14.821Z,-5.10
2019-01-25T19:59:48.175Z,-5.10
2019-01-25T20:02:18.834Z,-5.30
2019-01-25T20:04:49.454Z,-5.30
2019-01-25T20:07:20.147Z,-5.30
2019-01-25T20:09:50.742Z,-5.40
2019-01-25T20:12:21.508Z,-5.20
2019-01-25T20:14:52.056Z,-5.60
2019-01-25T20:17:22.696Z,-5.50
2019-01-25T20:19:55.468Z,-5.60
2019-01-25T20:22:26.163Z,-5.60
2019-01-25T20:24:56.836Z,-5.80
2019-01-25T20:27:27.790Z,-5.70
2019-01-25T20:29:58.371Z,-5.70
2019-01-25T20:32:29.509Z,-5.70
2019-01-25T20:35:02.650Z,-5.50
2019-01-25T20:37:33.418Z,-5.60
2019-01-25T20:40:05.921Z,-5.50
2019-01-25T20:42:37.995Z,-5.50
2019-01-25T20:45:13.612Z,-5.60
2019-01-25T20:47:44.261Z,-5.70
2019-01-25T20:50:19.091Z,-5.60
2019-01-25T20:52:49.760Z,-5.60
2019-01-25T20:55:20.483Z,-5.60
2019-01-25T20:57:51.151Z,-5.70
2019-01-25T21:00:37.005Z,-5.60
2019-01-25T21:03:12.643Z,-5.70
2019-01-25T21:05:42.582Z,-5.70
2019-01-25T21:08:13.304Z,-5.60
2019-01-25T21:10:44.088Z,-5.70
2019-01-25T21:13:16.155Z,-5.60
2019-01-25T21:15:46.864Z,-5.80
2019-01-25T21:18:17.478Z,-5.90
2019-01-25T21:20:48.449Z,-5.90
2019-01-25T21:23:19.064Z,-6.00
2019-01-25T21:25:49.865Z,-6.10
2019-01-25T21:28:20.639Z,-6.10
2019-01-25T21:30:51.244Z,-6.10
2019-01-25T21:33:21.733Z,-6.10
2019-01-25T21:35:53.158Z,-6.20
2019-01-25T21:38:24.248Z,-6.30
2019-01-25T21:40:54.865Z,-6.60
2019-01-25T21:43:25.490Z,-6.40
2019-01-25T21:45:56.158Z,-6.40
2019-01-25T21:48:26.797Z,-6.30
2019-01-25T21:50:57.500Z,-6.30
2019-01-25T21:53:28.151Z,-6.30
2019-01-25T21:56:02.181Z,-6.30
2019-01-25T21:58:33.903Z,-6.30
2019-01-25T22:01:05.712Z,-6.50
2019-01-25T22:03:36.382Z,-6.40
2019-01-25T22:06:07.187Z,-6.50
2019-01-25T22:08:37.843Z,-6.50
2019-01-25T22:11:08.449Z,-6.50
2019-01-25T22:13:39.154Z,-6.50
2019-01-25T22:16:09.685Z,-6.50
2019-01-25T22:18:40.290Z,-6.20
2019-01-25T22:21:10.824Z,-6.50
2019-01-25T22:23:41.402Z,-6.70
2019-01-25T22:26:12.004Z,-6.50
2019-01-25T22:28:42.565Z,-6.50
2019-01-25T22:31:13.272Z,-6.50
2019-01-25T22:33:43.947Z,-6.60
2019-01-25T22:36:15.323Z,-6.50
2019-01-25T22:38:46.468Z,-6.60
2019-01-25T22:41:17.894Z,-6.70
2019-01-25T22:43:50.026Z,-6.70
2019-01-25T22:46:20.723Z,-6.70
2019-01-25T22:48:51.420Z,-6.60
2019-01-25T22:51:22.011Z,-6.70
2019-01-25T22:53:55.258Z,-6.80
2019-01-25T22:56:25.820Z,-6.90
2019-01-25T22:58:56.420Z,-6.90
2019-01-25T23:01:27.984Z,-6.90
2019-01-25T23:04:11.913Z,-7.00
2019-01-25T23:06:45.693Z,-7.10
2019-01-25T23:09:23.619Z,-7.10
2019-01-25T23:11:54.309Z,-7.10
2019-01-25T23:14:24.967Z,-7.30
2019-01-25T23:16:56.628Z,-7.20
2019-01-25T23:19:28.217Z,-7.20
2019-01-25T23:21:58.815Z,-7.20
2019-01-25T23:24:29.482Z,-7.20
2019-01-25T23:27:00.372Z,-7.00
2019-01-25T23:29:31.439Z,-7.20
2019-01-25T23:32:02.138Z,-7.20
2019-01-25T23:34:36.935Z,-7.20
2019-01-25T23:37:08.527Z,-7.10
2019-01-25T23:39:39.145Z,-7.10
2019-01-25T23:42:10.395Z,-7.20
2019-01-25T23:44:41.045Z,-7.20
2019-01-25T23:47:11.962Z,-7.20
2019-01-25T23:49:42.557Z,-7.30
2019-01-25T23:52:13.114Z,-7.30
2019-01-25T23:54:44.039Z,-7.30
2019-01-25T23:57:14.687Z,-7.30
2019-01-25T23:59:45.313Z,-7.30
